createdAt,value
2023-01-09T00:01:15.664Z,4.72
2023-01-09T00:02:40.862Z,4.68
2023-01-09T00:04:05.068Z,5.60
2023-01-09T00:05:28.683Z,5.80
2023-01-09T00:06:54.690Z,4.97
2023-01-09T00:08:18.597Z,6.25
2023-01-09T00:09:42.127Z,5.32
2023-01-09T00:11:05.884Z,5.60
2023-01-09T00:12:29.507Z,5.85
2023-01-09T00:13:53.107Z,5.18
2023-01-09T00:15:16.592Z,5.65
2023-01-09T00:16:40.099Z,5.35
2023-01-09T00:18:05.072Z,5.70
2023-01-09T00:19:28.534Z,5.38
2023-01-09T00:20:52.055Z,5.38
2023-01-09T00:22:15.527Z,5.03
2023-01-09T00:23:39.347Z,5.00
2023-01-09T00:25:01.995Z,5.72
2023-01-09T00:26:25.521Z,4.97
2023-01-09T00:27:49.014Z,5.22
2023-01-09T00:29:12.795Z,5.20
2023-01-09T00:30:35.352Z,5.78
2023-01-09T00:32:01.180Z,5.40
2023-01-09T00:33:28.821Z,6.03
2023-01-09T00:34:52.923Z,5.50
2023-01-09T00:36:15.465Z,5.57
2023-01-09T00:37:38.932Z,5.78
2023-01-09T00:39:01.699Z,6.20
2023-01-09T00:40:25.271Z,5.78
2023-01-09T00:41:51.451Z,5.57
2023-01-09T00:43:15.303Z,6.15
2023-01-09T00:44:42.532Z,6.13
2023-01-09T00:46:06.255Z,5.38
2023-01-09T00:47:32.420Z,5.65
2023-01-09T00:48:57.380Z,5.70
2023-01-09T00:50:23.968Z,5.85
2023-01-09T00:51:47.477Z,5.13
2023-01-09T00:53:13.569Z,5.32
2023-01-09T00:54:37.210Z,5.15
2023-01-09T00:56:02.017Z,5.43
2023-01-09T00:57:25.553Z,6.65
2023-01-09T00:58:49.938Z,5.50
2023-01-09T01:00:14.284Z,4.95
2023-01-09T01:01:38.277Z,6.10
2023-01-09T01:03:00.898Z,6.07
2023-01-09T01:04:43.443Z,5.78
2023-01-09T01:06:25.036Z,4.53
2023-01-09T01:07:48.877Z,6.32
2023-01-09T01:09:12.401Z,5.82
2023-01-09T01:10:35.937Z,6.25
2023-01-09T01:11:59.401Z,5.90
2023-01-09T01:13:22.874Z,7.15
2023-01-09T01:14:46.367Z,6.88
2023-01-09T01:16:11.715Z,6.45
2023-01-09T01:17:35.408Z,6.45
2023-01-09T01:18:58.923Z,6.10
2023-01-09T01:20:22.961Z,5.95
2023-01-09T01:21:46.602Z,6.32
2023-01-09T01:23:10.274Z,6.93
2023-01-09T01:24:32.837Z,6.72
2023-01-09T01:25:56.365Z,7.47
2023-01-09T01:27:19.949Z,6.68
2023-01-09T01:28:43.731Z,6.90
2023-01-09T01:30:08.767Z,6.47
2023-01-09T01:31:32.217Z,6.68
2023-01-09T01:32:55.775Z,7.30
2023-01-09T01:34:18.247Z,6.43
2023-01-09T01:35:43.116Z,7.82
2023-01-09T01:37:06.415Z,6.78
2023-01-09T01:38:30.963Z,7.15
2023-01-09T01:39:53.489Z,6.75
2023-01-09T01:41:29.388Z,5.88
2023-01-09T01:42:55.244Z,6.53
2023-01-09T01:44:55.479Z,6.85
2023-01-09T01:46:19.336Z,6.28
2023-01-09T01:47:47.013Z,7.93
2023-01-09T01:49:14.270Z,7.07
2023-01-09T01:50:40.580Z,6.47
2023-01-09T01:52:05.558Z,7.15
2023-01-09T01:53:32.759Z,6.93
2023-01-09T01:54:55.729Z,6.32
2023-01-09T01:56:21.707Z,6.93
2023-01-09T01:57:48.235Z,6.38
2023-01-09T01:59:16.064Z,7.88
2023-01-09T02:00:41.820Z,7.13
2023-01-09T02:02:05.239Z,6.95
2023-01-09T02:03:30.170Z,7.18
2023-01-09T02:04:55.185Z,6.05
2023-01-09T02:06:18.663Z,6.97
2023-01-09T02:07:42.507Z,6.80
2023-01-09T02:09:07.179Z,6.82
2023-01-09T02:10:30.638Z,7.13
2023-01-09T02:11:56.485Z,7.13
2023-01-09T02:13:23.483Z,7.43
2023-01-09T02:14:50.869Z,6.45
2023-01-09T02:16:28.431Z,5.93
2023-01-09T02:18:02.626Z,6.70
2023-01-09T02:19:46.749Z,7.63
2023-01-09T02:21:16.949Z,7.35
2023-01-09T02:22:51.172Z,6.90
2023-01-09T02:24:40.315Z,7.18
2023-01-09T02:26:24.152Z,7.85
2023-01-09T02:28:06.126Z,6.70
2023-01-09T02:30:11.405Z,7.10
2023-01-09T02:31:40.588Z,7.20
2023-01-09T02:33:22.295Z,6.30
2023-01-09T02:34:51.731Z,7.40
2023-01-09T02:36:23.689Z,7.75
2023-01-09T02:37:49.863Z,6.95
2023-01-09T02:39:22.598Z,6.30
2023-01-09T02:40:50.819Z,6.72
2023-01-09T02:42:17.161Z,6.85
2023-01-09T02:43:41.643Z,7.45
2023-01-09T02:45:04.891Z,7.90
2023-01-09T02:46:28.304Z,7.07
2023-01-09T02:47:52.165Z,7.40
2023-01-09T02:49:16.880Z,6.38
2023-01-09T02:50:45.442Z,6.88
2023-01-09T02:52:16.117Z,6.65
2023-01-09T02:54:02.583Z,7.03
2023-01-09T02:55:36.473Z,7.55
2023-01-09T02:57:12.950Z,6.90
2023-01-09T02:58:55.419Z,8.18
2023-01-09T03:00:31.911Z,7.90
2023-01-09T03:02:03.310Z,8.43
2023-01-09T03:03:33.253Z,6.75
2023-01-09T03:05:01.595Z,8.07
2023-01-09T03:06:29.658Z,8.38
2023-01-09T03:07:59.916Z,6.88
2023-01-09T03:09:25.826Z,7.38
2023-01-09T03:10:53.251Z,6.13
2023-01-09T03:12:19.019Z,7.65
2023-01-09T03:13:46.157Z,7.82
2023-01-09T03:15:13.091Z,7.93
2023-01-09T03:16:38.315Z,7.72
2023-01-09T03:18:02.355Z,8.10
2023-01-09T03:19:28.967Z,8.18
2023-01-09T03:20:53.143Z,7.93
2023-01-09T03:22:15.569Z,8.05
2023-01-09T03:23:50.432Z,8.20
2023-01-09T03:25:15.374Z,7.60
2023-01-09T03:26:38.999Z,8.48
2023-01-09T03:28:06.508Z,8.32
2023-01-09T03:29:29.988Z,9.65
2023-01-09T03:30:53.531Z,8.88
2023-01-09T03:32:17.072Z,8.32
2023-01-09T03:33:39.536Z,8.05
2023-01-09T03:35:04.436Z,8.23
2023-01-09T03:36:29.244Z,8.23
2023-01-09T03:37:51.992Z,8.48
2023-01-09T03:39:15.414Z,8.10
2023-01-09T03:40:39.055Z,8.00
2023-01-09T03:42:02.494Z,9.07
2023-01-09T03:43:25.073Z,8.93
2023-01-09T03:44:50.833Z,7.05
2023-01-09T03:46:14.341Z,8.80
2023-01-09T03:47:37.043Z,8.18
2023-01-09T03:49:00.515Z,7.97
2023-01-09T03:50:25.375Z,8.63
2023-01-09T03:51:48.849Z,8.13
2023-01-09T03:53:13.140Z,8.75
2023-01-09T03:54:36.675Z,7.63
2023-01-09T03:56:00.264Z,8.13
2023-01-09T03:57:24.170Z,8.52
2023-01-09T03:58:50.201Z,8.15
2023-01-09T04:00:13.629Z,8.15
2023-01-09T04:01:37.340Z,8.20
2023-01-09T04:03:00.935Z,8.23
2023-01-09T04:04:24.471Z,7.30
2023-01-09T04:05:50.220Z,8.23
2023-01-09T04:07:13.801Z,7.28
2023-01-09T04:08:37.301Z,8.23
2023-01-09T04:10:00.799Z,8.05
2023-01-09T04:11:24.236Z,8.73
2023-01-09T04:12:47.705Z,8.27
2023-01-09T04:14:11.124Z,8.75
2023-01-09T04:15:33.632Z,7.82
2023-01-09T04:16:57.145Z,8.25
2023-01-09T04:18:19.680Z,9.20
2023-01-09T04:19:43.224Z,8.15
2023-01-09T04:21:07.134Z,7.72
2023-01-09T04:22:31.383Z,8.13
2023-01-09T04:23:54.953Z,9.00
2023-01-09T04:25:17.523Z,9.00
2023-01-09T04:26:41.100Z,8.57
2023-01-09T04:28:04.636Z,8.07
2023-01-09T04:29:28.114Z,8.57
2023-01-09T04:30:51.651Z,8.30
2023-01-09T04:32:15.213Z,8.55
2023-01-09T04:33:38.871Z,8.75
2023-01-09T04:35:01.343Z,7.50
2023-01-09T04:36:26.254Z,8.38
2023-01-09T04:39:41.716Z,7.90
2023-01-09T04:41:04.270Z,8.77
2023-01-09T04:42:27.666Z,6.07
2023-01-09T04:43:50.934Z,8.18
2023-01-09T04:45:15.626Z,7.65
2023-01-09T04:46:38.037Z,7.85
2023-01-09T04:48:01.607Z,7.78
2023-01-09T04:49:25.123Z,7.82
2023-01-09T04:50:48.557Z,7.57
2023-01-09T04:52:13.332Z,8.43
2023-01-09T04:53:36.889Z,7.03
2023-01-09T04:55:01.191Z,7.10
2023-01-09T04:56:23.685Z,7.00
2023-01-09T04:57:47.071Z,8.45
2023-01-09T04:59:10.582Z,8.07
2023-01-09T05:00:34.087Z,7.57
2023-01-09T05:01:58.344Z,8.10
2023-01-09T05:03:21.950Z,7.55
2023-01-09T05:04:45.370Z,7.60
2023-01-09T05:06:09.077Z,7.78
2023-01-09T05:07:33.896Z,7.72
2023-01-09T05:08:57.339Z,8.77
2023-01-09T05:10:20.896Z,8.30
2023-01-09T05:11:43.415Z,7.45
2023-01-09T05:13:06.971Z,6.93
2023-01-09T05:14:29.427Z,8.73
2023-01-09T05:15:52.927Z,8.13
2023-01-09T05:17:16.755Z,8.43
2023-01-09T05:18:40.140Z,8.48
2023-01-09T05:20:03.592Z,8.60
2023-01-09T05:21:27.209Z,7.75
2023-01-09T05:22:52.022Z,8.15
2023-01-09T05:24:14.436Z,8.77
2023-01-09T05:25:37.852Z,7.95
2023-01-09T05:27:02.717Z,7.65
2023-01-09T05:28:26.124Z,7.88
2023-01-09T05:29:49.575Z,8.98
2023-01-09T05:31:14.499Z,7.80
2023-01-09T05:32:37.895Z,8.20
2023-01-09T05:34:01.491Z,8.63
2023-01-09T05:35:25.090Z,7.35
2023-01-09T05:36:48.591Z,8.32
2023-01-09T05:38:12.354Z,8.02
2023-01-09T05:39:35.818Z,7.20
2023-01-09T05:41:00.460Z,8.48
2023-01-09T05:42:23.858Z,8.52
2023-01-09T05:43:46.230Z,8.02
2023-01-09T05:45:10.862Z,7.45
2023-01-09T05:46:34.638Z,7.53
2023-01-09T05:47:58.129Z,7.40
2023-01-09T05:49:21.563Z,7.72
2023-01-09T05:50:44.398Z,8.50
2023-01-09T05:52:07.956Z,8.05
2023-01-09T05:53:32.752Z,7.45
2023-01-09T05:54:56.231Z,8.50
2023-01-09T05:56:18.688Z,8.82
2023-01-09T05:57:42.401Z,8.27
2023-01-09T05:59:05.960Z,8.20
2023-01-09T06:00:29.417Z,7.28
2023-01-09T06:01:54.279Z,8.32
2023-01-09T06:03:17.816Z,8.35
2023-01-09T06:04:43.776Z,7.95
2023-01-09T06:06:06.798Z,8.68
2023-01-09T06:07:30.239Z,7.82
2023-01-09T06:08:55.001Z,8.82
2023-01-09T06:10:18.908Z,8.55
2023-01-09T06:11:42.319Z,8.05
2023-01-09T06:13:05.831Z,9.90
2023-01-09T06:14:29.820Z,8.15
2023-01-09T06:15:53.260Z,8.25
2023-01-09T06:17:16.698Z,6.10
2023-01-09T06:18:40.197Z,7.70
2023-01-09T06:20:03.939Z,8.00
2023-01-09T06:21:29.421Z,8.38
2023-01-09T06:22:53.286Z,7.80
2023-01-09T06:24:18.113Z,7.75
2023-01-09T06:25:41.593Z,7.75
2023-01-09T06:27:06.621Z,7.25
2023-01-09T06:28:30.063Z,7.88
2023-01-09T06:29:53.620Z,6.68
2023-01-09T06:31:17.135Z,8.23
2023-01-09T06:32:40.566Z,6.75
2023-01-09T06:34:04.065Z,8.07
2023-01-09T06:35:27.557Z,7.97
2023-01-09T06:36:50.978Z,8.02
2023-01-09T06:38:14.400Z,8.55
2023-01-09T06:39:39.181Z,8.40
2023-01-09T06:41:02.702Z,6.55
2023-01-09T06:42:26.099Z,8.38
2023-01-09T06:43:49.490Z,7.65
2023-01-09T06:45:12.419Z,8.20
2023-01-09T06:46:35.923Z,8.85
2023-01-09T06:47:59.452Z,7.15
2023-01-09T06:49:24.773Z,9.00
2023-01-09T06:50:49.552Z,8.10
2023-01-09T06:52:12.133Z,7.97
2023-01-09T06:53:36.007Z,7.93
2023-01-09T06:55:00.733Z,7.63
2023-01-09T06:56:24.158Z,7.63
2023-01-09T06:57:47.549Z,7.13
2023-01-09T06:59:11.217Z,9.15
2023-01-09T07:00:34.751Z,8.55
2023-01-09T07:01:58.265Z,8.13
2023-01-09T07:03:22.512Z,8.73
2023-01-09T07:04:45.950Z,8.13
2023-01-09T07:06:09.533Z,7.97
2023-01-09T07:07:33.009Z,7.80
2023-01-09T07:08:56.382Z,7.40
2023-01-09T07:10:21.224Z,8.85
2023-01-09T07:11:44.727Z,9.05
2023-01-09T07:13:08.144Z,8.35
2023-01-09T07:14:31.669Z,7.78
2023-01-09T07:15:55.155Z,8.55
2023-01-09T07:17:18.568Z,8.77
2023-01-09T07:18:41.972Z,7.75
2023-01-09T07:20:06.399Z,7.85
2023-01-09T07:21:32.584Z,8.23
2023-01-09T07:22:56.235Z,7.50
2023-01-09T07:24:19.668Z,8.48
2023-01-09T07:25:45.239Z,7.80
2023-01-09T07:27:08.638Z,8.80
2023-01-09T07:28:32.131Z,8.57
2023-01-09T07:29:55.631Z,8.73
2023-01-09T07:31:25.005Z,7.25
2023-01-09T07:32:48.458Z,7.63
2023-01-09T07:34:11.916Z,9.18
2023-01-09T07:35:35.463Z,8.82
2023-01-09T07:36:58.896Z,7.47
2023-01-09T07:38:22.289Z,8.25
2023-01-09T07:39:45.747Z,8.98
2023-01-09T07:41:10.535Z,7.88
2023-01-09T07:42:34.440Z,7.68
2023-01-09T07:43:58.704Z,8.98
2023-01-09T07:45:22.312Z,8.02
2023-01-09T07:46:45.762Z,7.70
2023-01-09T07:48:09.156Z,7.78
2023-01-09T07:49:32.729Z,8.32
2023-01-09T07:50:56.148Z,7.03
2023-01-09T07:52:19.554Z,8.77
2023-01-09T07:53:42.975Z,9.07
2023-01-09T07:55:07.400Z,8.80
2023-01-09T07:56:32.256Z,7.55
2023-01-09T07:57:55.716Z,8.35
2023-01-09T07:59:19.172Z,8.57
2023-01-09T08:00:42.627Z,7.68
2023-01-09T08:02:07.211Z,8.88
2023-01-09T08:03:30.700Z,8.32
2023-01-09T08:04:54.123Z,7.15
2023-01-09T08:06:17.532Z,8.57
2023-01-09T08:07:40.990Z,8.25
2023-01-09T08:09:04.500Z,8.63
2023-01-09T08:10:27.927Z,7.63
2023-01-09T08:11:52.987Z,8.88
2023-01-09T08:13:16.383Z,8.32
2023-01-09T08:14:39.752Z,8.75
2023-01-09T08:16:03.283Z,8.20
2023-01-09T08:17:26.838Z,8.02
2023-01-09T08:18:50.257Z,9.15
2023-01-09T08:20:15.088Z,7.68
2023-01-09T08:21:38.497Z,8.35
2023-01-09T08:23:01.906Z,8.15
2023-01-09T08:24:25.361Z,8.35
2023-01-09T08:25:48.816Z,8.07
2023-01-09T08:27:13.773Z,9.70
2023-01-09T08:28:37.305Z,7.93
2023-01-09T08:30:00.713Z,8.35
2023-01-09T08:31:24.246Z,7.60
2023-01-09T08:32:51.215Z,8.52
2023-01-09T08:34:14.803Z,7.97
2023-01-09T08:35:38.576Z,8.82
2023-01-09T08:37:01.993Z,9.45
2023-01-09T08:38:25.465Z,8.23
2023-01-09T08:39:48.889Z,8.48
2023-01-09T08:41:29.939Z,8.30
2023-01-09T08:43:12.509Z,9.07
2023-01-09T08:44:57.181Z,8.20
2023-01-09T08:46:40.103Z,7.95
2023-01-09T08:48:03.558Z,9.00
2023-01-09T08:49:26.927Z,7.05
2023-01-09T08:50:50.883Z,9.52
2023-01-09T08:52:14.400Z,8.65
2023-01-09T08:53:37.888Z,8.98
2023-01-09T08:55:01.292Z,8.13
2023-01-09T08:56:24.789Z,8.32
2023-01-09T08:57:51.535Z,8.43
2023-01-09T08:59:17.652Z,8.05
2023-01-09T09:00:41.138Z,8.55
2023-01-09T09:02:04.601Z,7.43
2023-01-09T09:03:28.053Z,7.72
2023-01-09T09:04:52.991Z,9.25
2023-01-09T09:06:16.435Z,7.88
2023-01-09T09:07:41.568Z,7.38
2023-01-09T09:09:06.505Z,8.60
2023-01-09T09:10:31.199Z,8.82
2023-01-09T09:11:54.603Z,8.75
2023-01-09T09:13:18.053Z,8.32
2023-01-09T09:15:00.696Z,8.65
2023-01-09T09:16:24.362Z,8.35
2023-01-09T09:17:51.013Z,8.75
2023-01-09T09:19:14.411Z,8.25
2023-01-09T09:20:39.563Z,8.30
2023-01-09T09:22:03.039Z,8.73
2023-01-09T09:23:26.571Z,7.95
2023-01-09T09:24:50.060Z,8.05
2023-01-09T09:26:13.535Z,8.88
2023-01-09T09:27:37.780Z,8.98
2023-01-09T09:29:01.258Z,9.02
2023-01-09T09:30:26.285Z,7.95
2023-01-09T09:31:49.765Z,8.82
2023-01-09T09:33:13.593Z,9.35
2023-01-09T09:34:37.049Z,8.45
2023-01-09T09:36:00.607Z,9.35
2023-01-09T09:37:24.055Z,8.68
2023-01-09T09:38:47.494Z,9.68
2023-01-09T09:40:22.762Z,8.38
2023-01-09T09:42:30.660Z,7.88
2023-01-09T09:44:19.097Z,8.10
2023-01-09T09:45:52.462Z,7.97
2023-01-09T09:47:27.871Z,8.60
2023-01-09T09:48:55.863Z,7.60
2023-01-09T09:50:36.074Z,7.80
2023-01-09T09:52:05.597Z,8.35
2023-01-09T09:53:32.862Z,7.97
2023-01-09T09:54:59.628Z,6.18
2023-01-09T09:56:24.626Z,7.70
2023-01-09T09:57:48.229Z,6.65
2023-01-09T09:59:14.085Z,6.90
2023-01-09T10:00:37.720Z,6.72
2023-01-09T10:02:05.952Z,7.40
2023-01-09T10:03:34.535Z,7.10
2023-01-09T10:05:02.070Z,7.03
2023-01-09T10:06:29.584Z,6.50
2023-01-09T10:07:53.458Z,6.65
2023-01-09T10:09:21.819Z,7.60
2023-01-09T10:10:49.413Z,6.53
2023-01-09T10:12:24.428Z,6.28
2023-01-09T10:14:06.342Z,6.03
2023-01-09T10:15:39.990Z,6.32
2023-01-09T10:17:13.447Z,6.38
2023-01-09T10:18:45.016Z,6.82
2023-01-09T10:20:40.522Z,5.50
2023-01-09T10:22:10.973Z,5.55
2023-01-09T10:24:00.595Z,5.90
2023-01-09T10:25:28.450Z,5.43
2023-01-09T10:26:54.097Z,5.90
2023-01-09T10:28:30.285Z,6.40
2023-01-09T10:30:10.509Z,5.63
2023-01-09T10:31:41.126Z,5.60
2023-01-09T10:33:16.758Z,5.15
2023-01-09T10:34:48.512Z,4.65
2023-01-09T10:36:33.029Z,5.20
2023-01-09T10:37:57.606Z,5.25
2023-01-09T10:39:24.730Z,5.38
2023-01-09T10:40:52.391Z,5.15
2023-01-09T10:42:21.600Z,5.18
2023-01-09T10:43:50.474Z,5.95
2023-01-09T10:45:18.833Z,5.25
2023-01-09T10:46:46.796Z,4.80
2023-01-09T10:48:23.234Z,5.10
2023-01-09T10:49:47.862Z,5.15
2023-01-09T10:51:17.898Z,5.03
2023-01-09T10:52:43.567Z,4.68
2023-01-09T10:54:14.082Z,4.72
2023-01-09T10:55:40.100Z,4.50
2023-01-09T10:57:08.404Z,4.45
2023-01-09T10:58:31.967Z,5.03
2023-01-09T10:59:55.460Z,4.40
2023-01-09T11:01:23.408Z,3.85
2023-01-09T11:02:47.411Z,5.15
2023-01-09T11:04:21.736Z,5.00
2023-01-09T11:05:45.622Z,4.55
2023-01-09T11:07:16.989Z,3.70
2023-01-09T11:08:42.691Z,3.30
2023-01-09T11:10:11.883Z,4.38
2023-01-09T11:11:36.857Z,4.18
2023-01-09T11:13:15.666Z,3.70
2023-01-09T11:14:39.152Z,3.25
2023-01-09T11:16:09.144Z,3.72
2023-01-09T11:17:32.716Z,3.65
2023-01-09T11:18:57.715Z,3.70
2023-01-09T11:20:26.960Z,3.80
2023-01-09T11:21:50.847Z,3.63
2023-01-09T11:23:32.479Z,3.40
2023-01-09T11:25:02.185Z,3.22
2023-01-09T11:26:29.799Z,3.53
2023-01-09T11:28:06.592Z,3.42
2023-01-09T11:29:30.036Z,3.42
2023-01-09T11:30:56.088Z,2.88
2023-01-09T11:32:24.079Z,2.88
2023-01-09T11:33:51.765Z,3.67
2023-01-09T11:35:34.114Z,2.70
2023-01-09T11:37:05.210Z,3.03
2023-01-09T11:38:29.110Z,2.78
2023-01-09T11:39:54.766Z,2.92
2023-01-09T11:41:21.483Z,3.00
2023-01-09T11:43:06.055Z,2.92
2023-01-09T11:44:31.354Z,2.97
2023-01-09T11:46:00.980Z,2.60
2023-01-09T11:47:39.636Z,2.88
2023-01-09T11:49:07.419Z,2.60
2023-01-09T11:50:33.008Z,2.70
2023-01-09T11:52:26.541Z,2.92
2023-01-09T11:54:14.420Z,2.50
2023-01-09T11:55:42.389Z,2.63
2023-01-09T11:57:08.783Z,2.38
2023-01-09T11:58:34.990Z,2.30
2023-01-09T12:00:02.762Z,2.88
2023-01-09T12:02:07.303Z,2.65
2023-01-09T12:03:54.965Z,2.85
2023-01-09T12:05:30.148Z,2.30
2023-01-09T12:07:25.650Z,2.42
2023-01-09T12:08:56.482Z,3.28
2023-01-09T12:10:35.817Z,2.20
2023-01-09T12:12:06.144Z,1.90
2023-01-09T12:13:42.596Z,2.03
2023-01-09T12:15:19.863Z,2.30
2023-01-09T12:16:51.102Z,1.83
2023-01-09T12:18:25.531Z,1.73
2023-01-09T12:20:11.097Z,2.15
2023-01-09T12:21:40.603Z,2.50
2023-01-09T12:23:20.056Z,1.50
2023-01-09T12:24:57.656Z,1.98
2023-01-09T12:26:24.280Z,1.98
2023-01-09T12:28:03.115Z,2.42
2023-01-09T12:29:35.830Z,3.50
2023-01-09T12:31:14.767Z,2.45
2023-01-09T12:32:47.773Z,2.13
2023-01-09T12:34:26.463Z,2.63
2023-01-09T12:35:57.195Z,2.72
2023-01-09T12:37:36.188Z,2.17
2023-01-09T12:39:07.668Z,2.70
2023-01-09T12:40:41.941Z,2.58
2023-01-09T12:42:25.714Z,2.15
2023-01-09T12:43:58.262Z,2.05
2023-01-09T12:45:34.438Z,2.70
2023-01-09T12:47:06.852Z,2.10
2023-01-09T12:48:44.953Z,2.15
2023-01-09T12:50:34.574Z,2.70
2023-01-09T12:52:04.584Z,3.65
2023-01-09T12:53:30.034Z,2.55
2023-01-09T12:54:59.255Z,3.35
2023-01-09T12:56:24.921Z,4.00
2023-01-09T12:57:51.271Z,2.88
2023-01-09T12:59:30.198Z,2.63
2023-01-09T13:00:58.980Z,2.63
2023-01-09T13:02:27.798Z,2.28
2023-01-09T13:03:58.592Z,1.95
2023-01-09T13:05:25.025Z,1.90
2023-01-09T13:06:53.059Z,1.73
2023-01-09T13:08:22.881Z,2.25
2023-01-09T13:09:50.820Z,2.05
2023-01-09T13:11:20.938Z,2.67
2023-01-09T13:12:47.665Z,1.52
2023-01-09T13:14:16.207Z,1.52
2023-01-09T13:15:44.008Z,1.45
2023-01-09T13:17:10.873Z,2.22
2023-01-09T13:18:37.069Z,1.60
2023-01-09T13:20:00.792Z,1.30
2023-01-09T13:21:24.506Z,1.70
2023-01-09T13:22:50.674Z,2.92
2023-01-09T13:24:25.310Z,2.58
2023-01-09T13:25:50.212Z,1.98
2023-01-09T13:27:18.648Z,2.47
2023-01-09T13:28:46.986Z,1.30
2023-01-09T13:30:20.628Z,1.85
2023-01-09T13:32:00.536Z,2.38
2023-01-09T13:33:29.187Z,2.30
2023-01-09T13:34:54.852Z,2.08
2023-01-09T13:36:28.292Z,1.80
2023-01-09T13:37:52.575Z,1.65
2023-01-09T13:39:21.768Z,1.30
2023-01-09T13:40:45.319Z,1.95
2023-01-09T13:42:39.064Z,2.10
2023-01-09T13:44:05.203Z,1.63
2023-01-09T13:45:30.041Z,2.15
2023-01-09T13:46:55.624Z,2.78
2023-01-09T13:48:29.507Z,1.70
2023-01-09T13:50:25.345Z,2.17
2023-01-09T13:52:02.837Z,2.25
2023-01-09T13:53:47.093Z,1.58
2023-01-09T13:55:35.900Z,1.70
2023-01-09T13:57:25.132Z,1.50
2023-01-09T13:59:04.278Z,2.00
2023-01-09T14:00:56.726Z,2.28
2023-01-09T14:02:53.344Z,2.40
2023-01-09T14:04:41.477Z,2.00
2023-01-09T14:06:17.291Z,2.13
2023-01-09T14:07:41.313Z,1.85
2023-01-09T14:09:21.883Z,1.85
2023-01-09T14:10:49.590Z,1.23
2023-01-09T14:12:17.068Z,1.40
2023-01-09T14:13:44.833Z,1.25
2023-01-09T14:15:19.748Z,1.55
2023-01-09T14:16:43.476Z,1.20
2023-01-09T14:18:14.236Z,1.73
2023-01-09T14:19:39.759Z,1.50
2023-01-09T14:21:05.103Z,1.75
2023-01-09T14:22:31.219Z,1.65
2023-01-09T14:24:04.601Z,1.50
2023-01-09T14:25:31.926Z,1.30
2023-01-09T14:26:57.707Z,1.20
2023-01-09T14:28:23.441Z,1.50
2023-01-09T14:29:48.867Z,1.23
2023-01-09T14:31:30.920Z,1.30
2023-01-09T14:33:03.396Z,1.50
2023-01-09T14:34:32.432Z,1.50
2023-01-09T14:36:04.894Z,1.40
2023-01-09T14:37:31.080Z,2.05
2023-01-09T14:38:55.551Z,1.40
2023-01-09T14:40:23.862Z,1.08
2023-01-09T14:42:07.927Z,1.33
2023-01-09T14:43:46.622Z,1.60
2023-01-09T14:45:19.329Z,2.22
2023-01-09T14:46:43.911Z,1.42
2023-01-09T14:48:10.238Z,1.23
2023-01-09T14:49:38.766Z,1.42
2023-01-09T14:51:08.493Z,1.45
2023-01-09T14:52:33.260Z,1.52
2023-01-09T14:53:57.261Z,1.33
2023-01-09T14:55:25.942Z,1.58
2023-01-09T14:56:49.463Z,1.90
2023-01-09T14:58:18.157Z,1.35
2023-01-09T14:59:41.605Z,1.50
2023-01-09T15:01:08.208Z,1.45
2023-01-09T15:02:34.380Z,1.50
2023-01-09T15:04:01.832Z,2.97
2023-01-09T15:05:27.181Z,1.52
2023-01-09T15:06:50.760Z,1.73
2023-01-09T15:08:20.041Z,3.53
2023-01-09T15:09:45.949Z,2.78
2023-01-09T15:11:12.892Z,1.58
2023-01-09T15:12:39.423Z,2.05
2023-01-09T15:14:05.219Z,1.95
2023-01-09T15:15:29.739Z,2.00
2023-01-09T15:16:54.724Z,1.92
2023-01-09T15:18:22.730Z,2.38
2023-01-09T15:19:47.052Z,1.80
2023-01-09T15:21:18.612Z,2.10
2023-01-09T15:22:42.159Z,2.28
2023-01-09T15:24:13.930Z,2.13
2023-01-09T15:25:40.272Z,2.38
2023-01-09T15:27:15.303Z,2.47
2023-01-09T15:28:42.909Z,2.00
2023-01-09T15:30:18.332Z,2.15
2023-01-09T15:31:44.473Z,1.80
2023-01-09T15:33:13.484Z,2.00
2023-01-09T15:34:37.026Z,2.00
2023-01-09T15:36:03.810Z,2.50
2023-01-09T15:37:30.046Z,2.20
2023-01-09T15:38:56.283Z,2.40
2023-01-09T15:40:24.887Z,2.90
2023-01-09T15:42:06.055Z,2.13
2023-01-09T15:43:31.115Z,2.00
2023-01-09T15:44:54.752Z,1.80
2023-01-09T15:46:18.458Z,2.13
2023-01-09T15:47:42.230Z,2.10
2023-01-09T15:49:10.853Z,2.58
2023-01-09T15:50:34.516Z,2.33
2023-01-09T15:51:58.287Z,2.17
2023-01-09T15:53:23.403Z,1.40
2023-01-09T15:54:48.437Z,1.60
2023-01-09T15:56:19.597Z,1.67
2023-01-09T15:57:52.734Z,1.80
2023-01-09T15:59:27.127Z,1.38
2023-01-09T16:00:56.135Z,1.63
2023-01-09T16:02:55.072Z,1.20
2023-01-09T16:04:20.107Z,2.30
2023-01-09T16:05:45.683Z,1.30
2023-01-09T16:07:16.618Z,1.15
2023-01-09T16:08:42.811Z,1.67
2023-01-09T16:10:06.915Z,1.83
2023-01-09T16:11:32.428Z,1.80
2023-01-09T16:12:56.008Z,1.75
2023-01-09T16:14:23.054Z,1.90
2023-01-09T16:15:46.666Z,1.80
2023-01-09T16:17:16.935Z,1.75
2023-01-09T16:18:42.317Z,1.70
2023-01-09T16:20:16.680Z,1.42
2023-01-09T16:21:40.379Z,1.92
2023-01-09T16:23:03.835Z,2.10
2023-01-09T16:24:28.821Z,1.50
2023-01-09T16:26:05.026Z,1.45
2023-01-09T16:27:30.615Z,1.27
2023-01-09T16:28:54.700Z,1.45
2023-01-09T16:30:27.829Z,1.38
2023-01-09T16:31:52.577Z,1.77
2023-01-09T16:33:24.992Z,1.50
2023-01-09T16:34:53.516Z,1.65
2023-01-09T16:36:18.823Z,1.40
2023-01-09T16:37:42.447Z,1.45
2023-01-09T16:39:06.474Z,1.42
2023-01-09T16:40:32.117Z,1.42
2023-01-09T16:42:15.451Z,1.50
2023-01-09T16:43:38.430Z,1.80
2023-01-09T16:45:01.909Z,2.00
2023-01-09T16:46:25.667Z,2.00
2023-01-09T16:47:49.234Z,1.45
2023-01-09T16:49:20.425Z,1.40
2023-01-09T16:50:44.485Z,1.83
2023-01-09T16:52:16.695Z,1.50
2023-01-09T16:53:40.174Z,1.75
2023-01-09T16:55:03.700Z,1.40
2023-01-09T16:56:29.728Z,1.65
2023-01-09T16:57:53.435Z,3.00
2023-01-09T16:59:20.488Z,2.25
2023-01-09T17:00:44.108Z,1.40
2023-01-09T17:02:15.869Z,1.88
2023-01-09T17:03:40.075Z,1.85
2023-01-09T17:05:04.804Z,1.75
2023-01-09T17:06:31.254Z,1.77
2023-01-09T17:07:56.612Z,1.63
2023-01-09T17:09:23.155Z,1.50
2023-01-09T17:10:47.593Z,1.00
2023-01-09T17:12:18.973Z,1.40
2023-01-09T17:13:42.547Z,1.30
2023-01-09T17:15:06.821Z,1.52
2023-01-09T17:16:30.829Z,1.10
2023-01-09T17:17:54.376Z,1.58
2023-01-09T17:19:19.723Z,1.27
2023-01-09T17:20:45.242Z,1.00
2023-01-09T17:22:08.800Z,1.50
2023-01-09T17:23:33.907Z,1.63
2023-01-09T17:25:15.117Z,1.50
2023-01-09T17:26:58.087Z,3.10
2023-01-09T17:28:34.200Z,2.10
2023-01-09T17:29:57.682Z,1.33
2023-01-09T17:31:21.372Z,1.60
2023-01-09T17:32:48.717Z,1.75
2023-01-09T17:34:12.184Z,1.50
2023-01-09T17:35:35.594Z,1.73
2023-01-09T17:36:59.054Z,1.95
2023-01-09T17:38:22.559Z,2.10
2023-01-09T17:39:47.900Z,2.33
2023-01-09T17:41:13.799Z,2.20
2023-01-09T17:42:37.213Z,2.25
2023-01-09T17:44:01.303Z,1.60
2023-01-09T17:45:25.414Z,2.25
2023-01-09T17:46:48.848Z,2.55
2023-01-09T17:48:17.332Z,1.90
2023-01-09T17:49:42.336Z,1.95
2023-01-09T17:51:05.969Z,1.30
2023-01-09T17:52:29.425Z,1.52
2023-01-09T17:53:53.039Z,1.75
2023-01-09T17:55:17.974Z,1.58
2023-01-09T17:56:43.675Z,1.35
2023-01-09T17:58:07.232Z,1.70
2023-01-09T17:59:30.756Z,1.80
2023-01-09T18:00:53.572Z,1.52
2023-01-09T18:02:18.947Z,2.33
2023-01-09T18:03:42.560Z,1.35
2023-01-09T18:05:06.671Z,2.80
2023-01-09T18:06:30.235Z,1.85
2023-01-09T18:07:53.876Z,1.55
2023-01-09T18:09:18.879Z,1.90
2023-01-09T18:10:48.284Z,1.58
2023-01-09T18:12:12.053Z,1.83
2023-01-09T18:13:35.999Z,1.60
2023-01-09T18:14:59.756Z,2.30
2023-01-09T18:16:25.048Z,2.05
2023-01-09T18:17:48.629Z,1.75
2023-01-09T18:19:12.302Z,1.20
2023-01-09T18:20:35.871Z,1.63
2023-01-09T18:22:03.621Z,1.33
2023-01-09T18:23:27.104Z,1.42
2023-01-09T18:24:50.520Z,1.75
2023-01-09T18:26:20.634Z,1.92
2023-01-09T18:27:44.221Z,3.13
2023-01-09T18:29:07.784Z,1.35
2023-01-09T18:30:31.284Z,1.73
2023-01-09T18:31:57.884Z,1.20
2023-01-09T18:33:21.395Z,1.75
2023-01-09T18:34:44.841Z,1.10
2023-01-09T18:36:09.357Z,1.50
2023-01-09T18:37:32.866Z,1.73
2023-01-09T18:38:56.888Z,1.75
2023-01-09T18:40:21.201Z,1.65
2023-01-09T18:41:46.070Z,2.85
2023-01-09T18:43:10.288Z,2.13
2023-01-09T18:44:33.719Z,0.98
2023-01-09T18:45:57.688Z,2.53
2023-01-09T18:47:21.296Z,1.65
2023-01-09T18:48:44.840Z,1.17
2023-01-09T18:50:08.234Z,1.50
2023-01-09T18:51:32.457Z,1.67
2023-01-09T18:52:56.455Z,1.58
2023-01-09T18:54:19.911Z,1.42
2023-01-09T18:55:43.377Z,1.65
2023-01-09T18:57:08.257Z,1.40
2023-01-09T18:58:33.930Z,1.75
2023-01-09T18:59:57.381Z,2.03
2023-01-09T19:01:21.368Z,1.35
2023-01-09T19:02:45.426Z,1.38
2023-01-09T19:04:08.996Z,1.52
2023-01-09T19:05:34.399Z,1.35
2023-01-09T19:06:59.723Z,1.30
2023-01-09T19:08:23.468Z,1.02
2023-01-09T19:09:47.889Z,1.50
2023-01-09T19:11:11.702Z,0.90
2023-01-09T19:12:37.010Z,1.13
2023-01-09T19:14:00.655Z,1.20
2023-01-09T19:15:25.687Z,1.65
2023-01-09T19:16:49.424Z,1.40
2023-01-09T19:18:13.906Z,1.13
2023-01-09T19:19:37.406Z,1.83
2023-01-09T19:21:01.455Z,1.00
2023-01-09T19:22:26.868Z,1.10
2023-01-09T19:23:51.311Z,1.85